createdAt,value
2022-09-18T00:01:28.249Z,1.17
2022-09-18T00:06:31.098Z,1.38
2022-09-18T00:11:33.392Z,1.10
2022-09-18T00:16:29.805Z,1.95
2022-09-18T00:21:26.954Z,1.08
2022-09-18T00:26:25.629Z,0.98
2022-09-18T00:31:25.725Z,1.33
2022-09-18T00:36:23.198Z,1.35
2022-09-18T00:41:25.655Z,1.25
2022-09-18T00:46:32.362Z,0.98
2022-09-18T00:51:33.112Z,0.60
2022-09-18T00:56:29.520Z,0.98
2022-09-18T01:01:25.954Z,1.20
2022-09-18T01:06:31.865Z,1.08
2022-09-18T01:11:45.467Z,1.00
2022-09-18T01:16:58.251Z,0.90
2022-09-18T01:22:16.050Z,1.20
2022-09-18T01:27:41.635Z,0.93
2022-09-18T01:32:49.313Z,0.80
2022-09-18T01:38:13.132Z,1.10
2022-09-18T01:43:14.140Z,1.23
2022-09-18T01:48:16.858Z,1.30
2022-09-18T01:53:21.406Z,0.98
2022-09-18T01:58:21.891Z,1.05
2022-09-18T02:03:26.120Z,1.25
2022-09-18T02:08:30.378Z,1.77
2022-09-18T02:13:41.521Z,1.83
2022-09-18T02:18:44.131Z,1.20
2022-09-18T02:23:42.426Z,1.38
2022-09-18T02:28:39.917Z,1.50
2022-09-18T02:33:37.260Z,1.70
2022-09-18T02:38:52.162Z,1.52
2022-09-18T02:43:55.770Z,1.75
2022-09-18T02:49:14.547Z,1.50
2022-09-18T02:54:23.428Z,1.38
2022-09-18T02:59:24.267Z,1.33
2022-09-18T03:04:23.997Z,1.10
2022-09-18T03:09:22.065Z,1.90
2022-09-18T03:14:18.382Z,2.58
2022-09-18T03:19:14.964Z,1.70
2022-09-18T03:24:11.492Z,1.42
2022-09-18T03:29:11.525Z,2.60
2022-09-18T03:34:08.008Z,1.90
2022-09-18T03:39:05.675Z,2.50
2022-09-18T03:44:02.211Z,2.30
2022-09-18T03:48:58.665Z,2.10
2022-09-18T03:53:54.996Z,1.45
2022-09-18T03:58:52.993Z,2.30
2022-09-18T04:03:49.656Z,2.50
2022-09-18T04:08:45.961Z,2.13
2022-09-18T04:13:42.273Z,1.90
2022-09-18T04:18:38.626Z,1.60
2022-09-18T04:23:35.282Z,2.47
2022-09-18T04:28:31.580Z,1.52
2022-09-18T04:33:28.015Z,1.90
2022-09-18T04:38:27.671Z,1.50
2022-09-18T04:43:25.558Z,2.03
2022-09-18T04:48:22.169Z,1.80
2022-09-18T04:53:19.231Z,1.60
2022-09-18T04:58:17.696Z,1.70
2022-09-18T05:08:10.274Z,1.60
2022-09-18T05:13:06.966Z,2.38
2022-09-18T05:18:11.141Z,1.30
2022-09-18T05:23:08.253Z,1.40
2022-09-18T05:28:04.856Z,1.95
2022-09-18T05:33:03.339Z,1.50
2022-09-18T05:42:56.386Z,1.45
2022-09-18T05:48:04.169Z,2.13
2022-09-18T05:53:06.457Z,2.45
2022-09-18T05:58:05.704Z,2.15
2022-09-18T06:03:05.063Z,3.60
2022-09-18T06:08:02.558Z,2.90
2022-09-18T06:13:02.990Z,3.00
2022-09-18T06:17:59.669Z,3.78
2022-09-18T06:23:00.731Z,3.83
2022-09-18T06:27:58.862Z,3.03
2022-09-18T06:32:57.016Z,3.25
2022-09-18T06:37:53.367Z,3.22
2022-09-18T06:42:55.122Z,3.47
2022-09-18T06:47:55.204Z,2.85
2022-09-18T06:52:51.629Z,2.85
2022-09-18T06:57:59.105Z,2.38
2022-09-18T07:03:02.749Z,1.70
2022-09-18T07:07:59.819Z,1.92
2022-09-18T07:12:57.222Z,2.00
2022-09-18T07:17:57.828Z,2.75
2022-09-18T07:22:56.226Z,2.10
2022-09-18T07:32:48.993Z,2.42
2022-09-18T07:37:45.311Z,2.60
2022-09-18T07:42:41.624Z,1.20
2022-09-18T07:47:37.908Z,1.23
2022-09-18T07:52:34.198Z,1.00
2022-09-18T07:57:30.635Z,1.23
2022-09-18T08:02:27.014Z,0.90
2022-09-18T08:07:24.375Z,1.00
2022-09-18T08:12:20.672Z,0.68
2022-09-18T08:17:17.141Z,0.80
2022-09-18T08:22:13.639Z,0.70
2022-09-18T08:27:09.924Z,1.38
2022-09-18T08:32:09.860Z,1.08
2022-09-18T08:37:06.462Z,0.93
2022-09-18T08:42:22.782Z,1.80
2022-09-18T08:47:35.254Z,1.10
2022-09-18T08:52:34.706Z,1.50
2022-09-18T08:57:43.023Z,0.80
2022-09-18T09:08:14.467Z,1.05
2022-09-18T09:13:21.095Z,0.93
2022-09-18T09:18:31.436Z,1.17
2022-09-18T09:24:02.049Z,1.30
2022-09-18T09:29:06.753Z,1.30
2022-09-18T09:34:26.816Z,1.00
2022-09-18T09:39:23.147Z,0.95
2022-09-18T09:44:31.363Z,0.98
2022-09-18T09:49:30.008Z,1.05
2022-09-18T09:54:26.304Z,1.05
2022-09-18T09:59:33.508Z,0.90
2022-09-18T10:04:52.489Z,1.20
2022-09-18T10:10:16.175Z,1.75
2022-09-18T10:15:23.293Z,0.93
2022-09-18T10:20:27.826Z,1.00
2022-09-18T10:25:54.698Z,0.90
2022-09-18T10:30:56.548Z,1.25
2022-09-18T10:35:54.732Z,1.63
2022-09-18T10:40:51.157Z,0.90
2022-09-18T10:45:53.142Z,0.63
2022-09-18T10:50:56.627Z,0.90
2022-09-18T10:55:55.939Z,1.05
2022-09-18T11:01:05.269Z,1.00
2022-09-18T11:06:08.947Z,1.00
2022-09-18T11:11:09.116Z,1.00
2022-09-18T11:16:05.984Z,0.98
2022-09-18T11:21:05.781Z,1.30
2022-09-18T11:26:09.928Z,0.90
2022-09-18T11:31:16.070Z,1.08
2022-09-18T11:36:15.897Z,1.20
2022-09-18T11:41:20.528Z,1.00
2022-09-18T11:46:38.948Z,0.80
2022-09-18T11:51:59.040Z,1.10
2022-09-18T11:56:59.979Z,0.80
2022-09-18T12:02:01.277Z,0.70
2022-09-18T12:07:06.080Z,0.80
2022-09-18T12:12:09.311Z,1.27
2022-09-18T12:17:33.066Z,0.60
2022-09-18T12:22:43.113Z,0.60
2022-09-18T12:27:49.043Z,0.60
2022-09-18T12:33:20.810Z,0.70
2022-09-18T12:38:26.100Z,0.82
2022-09-18T12:43:29.143Z,0.75
2022-09-18T12:48:48.848Z,0.77
2022-09-18T12:54:06.900Z,0.55
2022-09-18T12:59:34.050Z,0.55
2022-09-18T13:04:40.432Z,5.82
2022-09-18T13:09:51.734Z,3.53
2022-09-18T13:14:53.642Z,0.88
2022-09-18T13:19:59.537Z,0.70
2022-09-18T13:24:57.419Z,1.08
2022-09-18T13:29:57.013Z,0.68
2022-09-18T13:35:01.115Z,0.70
2022-09-18T13:40:10.202Z,0.45
2022-09-18T13:45:27.294Z,0.50
2022-09-18T13:50:23.724Z,0.57
2022-09-18T13:55:20.078Z,0.80
2022-09-18T14:00:19.167Z,0.68
2022-09-18T14:05:31.932Z,0.82
2022-09-18T14:10:37.019Z,0.70
2022-09-18T14:15:33.571Z,0.77
2022-09-18T14:20:30.940Z,0.68
2022-09-18T14:25:47.611Z,1.00
2022-09-18T14:30:43.995Z,0.65
2022-09-18T14:36:04.655Z,0.80
2022-09-18T14:41:08.953Z,0.80
2022-09-18T14:46:06.746Z,0.90
2022-09-18T14:51:16.761Z,0.88
2022-09-18T14:56:16.993Z,0.77
2022-09-18T15:01:18.676Z,1.02
2022-09-18T15:06:28.369Z,1.60
2022-09-18T15:11:34.691Z,1.30
2022-09-18T15:16:38.301Z,1.15
2022-09-18T15:21:35.726Z,1.10
2022-09-18T15:27:00.463Z,1.25
2022-09-18T15:31:57.696Z,1.00
2022-09-18T15:37:00.675Z,0.93
2022-09-18T15:42:11.324Z,0.93
2022-09-18T15:47:26.183Z,1.10
2022-09-18T15:52:43.559Z,0.80
2022-09-18T15:57:48.727Z,0.80
2022-09-18T16:02:57.946Z,0.98
2022-09-18T16:07:58.127Z,0.95
2022-09-18T16:12:54.758Z,1.02
2022-09-18T16:17:50.993Z,0.80
2022-09-18T16:22:48.370Z,2.05
2022-09-18T16:27:46.850Z,2.25
2022-09-18T16:32:43.287Z,3.08
2022-09-18T16:37:40.503Z,2.40
2022-09-18T16:42:36.956Z,3.28
2022-09-18T16:47:33.575Z,2.25
2022-09-18T16:52:30.063Z,0.80
2022-09-18T16:57:27.695Z,0.80
2022-09-18T17:02:26.067Z,1.60
2022-09-18T17:07:22.698Z,1.10
2022-09-18T17:12:18.974Z,0.85
2022-09-18T17:17:15.469Z,1.10
2022-09-18T17:22:11.987Z,1.38
2022-09-18T17:27:08.395Z,1.35
2022-09-18T17:32:06.387Z,0.95
2022-09-18T17:37:02.789Z,0.60
2022-09-18T17:41:59.377Z,0.98
2022-09-18T17:46:55.684Z,0.70
2022-09-18T17:51:51.987Z,1.63
2022-09-18T17:56:48.308Z,1.00
2022-09-18T18:01:46.980Z,0.65
2022-09-18T18:06:47.265Z,1.33
2022-09-18T18:11:44.234Z,1.33
2022-09-18T18:16:41.304Z,1.20
2022-09-18T18:21:39.858Z,0.68
2022-09-18T18:26:37.904Z,0.68
2022-09-18T18:31:34.508Z,0.65
2022-09-18T18:36:33.441Z,1.02
2022-09-18T18:41:31.411Z,0.77
2022-09-18T18:46:29.623Z,0.80
2022-09-18T18:51:26.321Z,0.82
2022-09-18T18:56:23.604Z,1.40
2022-09-18T19:01:20.122Z,1.23
2022-09-18T19:06:16.891Z,0.77
2022-09-18T19:11:15.380Z,1.40
2022-09-18T19:21:09.023Z,0.80
2022-09-18T19:26:05.484Z,1.35
2022-09-18T19:31:04.082Z,3.35
2022-09-18T19:36:07.305Z,2.45
2022-09-18T19:41:16.393Z,1.20
2022-09-18T19:46:19.746Z,0.85
2022-09-18T19:51:16.267Z,0.82
2022-09-18T19:56:27.804Z,0.77
2022-09-18T20:01:29.274Z,0.52
2022-09-18T20:06:25.679Z,0.80
2022-09-18T20:11:21.950Z,1.05
2022-09-18T20:16:19.509Z,0.65
2022-09-18T20:21:17.903Z,0.97
2022-09-18T20:26:16.862Z,0.63
2022-09-18T20:31:15.002Z,0.40
2022-09-18T20:36:11.530Z,0.70
2022-09-18T20:41:16.449Z,0.75
2022-09-18T20:46:15.669Z,0.77
2022-09-18T20:51:14.815Z,0.68
2022-09-18T20:56:13.435Z,2.20
2022-09-18T21:01:12.603Z,0.52
2022-09-18T21:06:22.456Z,1.02
2022-09-18T21:11:23.098Z,0.95
2022-09-18T21:16:20.888Z,0.95
2022-09-18T21:21:17.279Z,2.03
2022-09-18T21:26:17.433Z,1.63
2022-09-18T21:31:14.032Z,1.00
2022-09-18T21:36:10.327Z,0.88
2022-09-18T21:41:09.531Z,1.10
2022-09-18T21:46:11.268Z,0.65
2022-09-18T21:51:10.769Z,1.10
2022-09-18T21:56:10.590Z,0.93
2022-09-18T22:01:08.924Z,1.42
2022-09-18T22:06:05.553Z,0.80
2022-09-18T22:11:03.317Z,1.27
2022-09-18T22:15:59.734Z,0.93
2022-09-18T22:20:57.146Z,1.05
2022-09-18T22:25:53.512Z,0.82
2022-09-18T22:30:49.791Z,1.75
2022-09-18T22:35:46.053Z,1.40
2022-09-18T22:40:42.335Z,1.52
2022-09-18T22:45:39.981Z,0.70
2022-09-18T22:50:36.242Z,1.20
2022-09-18T22:55:33.508Z,1.50
2022-09-18T23:00:29.822Z,1.20
2022-09-18T23:05:26.100Z,1.38
2022-09-18T23:10:22.674Z,1.90
2022-09-18T23:15:19.003Z,1.55
2022-09-18T23:20:15.523Z,1.25
2022-09-18T23:25:11.798Z,2.25
2022-09-18T23:30:08.550Z,1.52
2022-09-18T23:35:05.316Z,1.45
2022-09-18T23:40:01.979Z,1.48
2022-09-18T23:44:58.617Z,1.00
2022-09-18T23:49:54.914Z,1.08
2022-09-18T23:54:51.183Z,1.23
2022-09-18T23:59:49.342Z,1.40
